createdAt,value
2022-09-06T00:02:03.344Z,57.85
2022-09-06T00:04:30.613Z,57.89
2022-09-06T00:06:57.911Z,57.97
2022-09-06T00:09:25.425Z,57.92
2022-09-06T00:11:52.707Z,57.80
2022-09-06T00:14:20.021Z,57.94
2022-09-06T00:16:47.448Z,57.79
2022-09-06T00:19:14.725Z,57.81
2022-09-06T00:21:42.047Z,58.03
2022-09-06T00:24:09.730Z,57.84
2022-09-06T00:26:37.026Z,57.87
2022-09-06T00:29:04.404Z,57.82
2022-09-06T00:31:32.780Z,58.01
2022-09-06T00:34:00.163Z,58.06
2022-09-06T00:36:27.462Z,58.01
2022-09-06T00:38:54.843Z,58.03
2022-09-06T00:41:22.296Z,58.01
2022-09-06T00:43:49.839Z,58.01
2022-09-06T00:46:20.896Z,57.88
2022-09-06T00:48:52.502Z,57.96
2022-09-06T00:51:22.010Z,57.91
2022-09-06T00:53:50.764Z,57.93
2022-09-06T00:56:18.301Z,57.93
2022-09-06T00:58:46.998Z,57.85
2022-09-06T01:01:14.482Z,57.85
2022-09-06T01:03:42.928Z,57.79
2022-09-06T01:07:07.522Z,57.92
2022-09-06T01:10:09.938Z,58.00
2022-09-06T01:13:04.986Z,58.14
2022-09-06T01:15:47.032Z,58.09
2022-09-06T01:18:34.891Z,57.94
2022-09-06T01:21:20.390Z,57.86
2022-09-06T01:24:25.847Z,57.98
2022-09-06T01:27:15.736Z,57.88
2022-09-06T01:29:57.157Z,58.00
2022-09-06T01:32:31.075Z,58.00
2022-09-06T01:35:49.290Z,57.94
2022-09-06T01:38:17.417Z,57.93
2022-09-06T01:40:44.744Z,57.86
2022-09-06T01:43:18.196Z,57.92
2022-09-06T01:46:20.068Z,57.80
2022-09-06T01:49:09.120Z,57.89
2022-09-06T01:51:55.886Z,57.65
2022-09-06T01:54:38.344Z,57.77
2022-09-06T01:57:23.841Z,57.69
2022-09-06T02:00:09.182Z,57.75
2022-09-06T02:02:51.024Z,57.62
2022-09-06T02:05:48.227Z,57.61
2022-09-06T02:08:40.301Z,57.62
2022-09-06T02:11:09.471Z,57.55
2022-09-06T02:13:44.144Z,57.61
2022-09-06T02:16:18.316Z,57.55
2022-09-06T02:19:12.218Z,57.45
2022-09-06T02:21:45.067Z,57.49
2022-09-06T02:24:20.101Z,57.60
2022-09-06T02:26:47.927Z,57.45
2022-09-06T02:29:16.567Z,57.78
2022-09-06T02:31:50.798Z,57.54
2022-09-06T02:34:19.991Z,57.60
2022-09-06T02:36:47.873Z,57.56
2022-09-06T02:39:15.132Z,57.62
2022-09-06T02:41:45.314Z,57.61
2022-09-06T02:44:12.567Z,57.67
2022-09-06T02:46:39.931Z,57.85
2022-09-06T02:49:07.206Z,58.14
2022-09-06T02:51:39.464Z,58.00
2022-09-06T02:54:07.449Z,57.97
2022-09-06T02:56:36.562Z,58.03
2022-09-06T02:59:07.189Z,58.00
2022-09-06T03:01:34.819Z,57.97
2022-09-06T03:04:02.897Z,57.91
2022-09-06T03:06:30.877Z,58.11
2022-09-06T03:09:00.088Z,58.14
2022-09-06T03:11:28.006Z,58.24
2022-09-06T03:13:55.404Z,58.14
2022-09-06T03:16:22.749Z,58.06
2022-09-06T03:18:50.100Z,58.07
2022-09-06T03:21:17.369Z,57.88
2022-09-06T03:23:45.967Z,57.97
2022-09-06T03:26:13.330Z,57.89
2022-09-06T03:28:40.826Z,57.83
2022-09-06T03:31:08.304Z,57.99
2022-09-06T03:33:35.744Z,57.86
2022-09-06T03:36:03.525Z,57.81
2022-09-06T03:38:31.189Z,57.99
2022-09-06T03:40:58.635Z,57.91
2022-09-06T03:43:27.015Z,57.78
2022-09-06T03:45:57.386Z,57.54
2022-09-06T03:48:27.857Z,57.17
2022-09-06T03:50:57.768Z,57.44
2022-09-06T03:53:27.347Z,57.67
2022-09-06T03:55:57.739Z,57.65
2022-09-06T03:58:29.602Z,57.43
2022-09-06T04:01:05.026Z,57.38
2022-09-06T04:03:32.926Z,57.52
2022-09-06T04:06:00.357Z,57.94
2022-09-06T04:08:27.826Z,57.40
2022-09-06T04:10:56.856Z,57.42
2022-09-06T04:13:27.332Z,57.37
2022-09-06T04:15:54.671Z,57.54
2022-09-06T04:18:22.234Z,57.44
2022-09-06T04:20:51.871Z,57.46
2022-09-06T04:23:20.506Z,57.80
2022-09-06T04:25:52.880Z,57.55
2022-09-06T04:28:21.696Z,57.44
2022-09-06T04:30:55.165Z,57.57
2022-09-06T04:33:25.968Z,57.67
2022-09-06T04:35:57.502Z,57.66
2022-09-06T04:38:30.066Z,57.43
2022-09-06T04:40:57.486Z,57.56
2022-09-06T04:43:25.123Z,57.64
2022-09-06T04:45:52.580Z,57.68
2022-09-06T04:48:19.929Z,57.76
2022-09-06T04:50:47.266Z,57.72
2022-09-06T04:53:14.541Z,57.71
2022-09-06T04:55:41.896Z,57.96
2022-09-06T04:58:09.249Z,57.70
2022-09-06T05:00:38.706Z,57.73
2022-09-06T05:03:06.062Z,57.78
2022-09-06T05:05:33.411Z,57.70
2022-09-06T05:08:00.677Z,57.82
2022-09-06T05:10:27.954Z,57.68
2022-09-06T05:12:55.538Z,57.38
2022-09-06T05:15:23.674Z,57.15
2022-09-06T05:17:51.048Z,56.76
2022-09-06T05:20:18.533Z,56.43
2022-09-06T05:22:54.362Z,56.06
2022-09-06T05:25:21.683Z,56.17
2022-09-06T05:27:49.039Z,56.45
2022-09-06T05:30:18.100Z,56.54
2022-09-06T05:32:45.542Z,56.47
2022-09-06T05:35:12.980Z,56.44
2022-09-06T05:37:40.317Z,56.07
2022-09-06T05:40:08.211Z,55.68
2022-09-06T05:42:35.936Z,55.40
2022-09-06T05:45:03.522Z,54.46
2022-09-06T05:47:34.385Z,54.38
2022-09-06T05:50:02.455Z,54.22
2022-09-06T05:52:29.776Z,54.44
2022-09-06T05:54:57.126Z,54.39
2022-09-06T05:57:24.503Z,54.28
2022-09-06T05:59:53.560Z,54.13
2022-09-06T06:02:21.958Z,54.09
2022-09-06T06:04:49.897Z,53.99
2022-09-06T06:07:17.194Z,54.02
2022-09-06T06:09:44.927Z,53.96
2022-09-06T06:12:12.613Z,54.12
2022-09-06T06:14:40.021Z,54.40
2022-09-06T06:17:07.373Z,54.59
2022-09-06T06:19:34.655Z,54.69
2022-09-06T06:22:01.971Z,54.79
2022-09-06T06:24:29.271Z,55.08
2022-09-06T06:26:56.599Z,55.28
2022-09-06T06:29:25.299Z,55.55
2022-09-06T06:31:52.685Z,55.77
2022-09-06T06:34:21.953Z,55.56
2022-09-06T06:36:49.412Z,55.44
2022-09-06T06:39:16.764Z,55.04
2022-09-06T06:41:44.111Z,54.81
2022-09-06T06:44:37.772Z,54.84
2022-09-06T06:47:05.184Z,55.05
2022-09-06T06:49:32.643Z,55.25
2022-09-06T06:52:00.013Z,54.98
2022-09-06T06:54:27.345Z,54.93
2022-09-06T06:56:54.638Z,54.96
2022-09-06T06:59:21.937Z,54.97
2022-09-06T07:01:50.618Z,54.50
2022-09-06T07:04:18.046Z,54.48
2022-09-06T07:12:31.069Z,54.93
2022-09-06T07:14:58.425Z,54.71
2022-09-06T07:17:25.838Z,54.38
2022-09-06T07:22:40.965Z,55.09
2022-09-06T07:25:10.069Z,55.18
2022-09-06T07:28:41.795Z,55.02
2022-09-06T07:33:56.744Z,54.23
2022-09-06T07:36:24.113Z,54.16
2022-09-06T07:38:51.756Z,53.90
2022-09-06T07:41:19.930Z,54.21
2022-09-06T07:43:47.563Z,54.11
2022-09-06T07:46:17.384Z,54.17
2022-09-06T07:48:46.789Z,53.82
2022-09-06T07:51:20.112Z,54.07
2022-09-06T07:54:12.953Z,54.63
2022-09-06T07:56:42.710Z,54.80
2022-09-06T07:59:09.983Z,53.96
2022-09-06T08:01:41.170Z,53.82
2022-09-06T08:04:08.690Z,54.29
2022-09-06T08:09:26.203Z,53.66
2022-09-06T08:11:53.723Z,53.26
2022-09-06T08:14:21.095Z,53.09
2022-09-06T08:16:48.426Z,52.86
2022-09-06T08:19:15.880Z,52.98
2022-09-06T08:21:43.955Z,53.20
2022-09-06T08:24:11.309Z,53.49
2022-09-06T08:26:45.123Z,53.48
2022-09-06T08:29:13.474Z,53.63
2022-09-06T08:31:43.289Z,53.63
2022-09-06T08:34:12.880Z,53.66
2022-09-06T08:36:41.327Z,53.62
2022-09-06T08:39:10.190Z,53.91
2022-09-06T08:42:00.387Z,53.97
2022-09-06T08:47:21.841Z,53.99
2022-09-06T08:50:14.110Z,54.09
2022-09-06T08:53:16.218Z,54.28
2022-09-06T08:56:13.230Z,54.47
2022-09-06T08:59:09.400Z,54.69
2022-09-06T09:02:03.976Z,54.81
2022-09-06T09:04:34.663Z,54.80
2022-09-06T09:07:16.665Z,54.66
2022-09-06T09:09:44.038Z,54.55
2022-09-06T09:12:14.559Z,54.64
2022-09-06T09:14:45.346Z,54.72
2022-09-06T09:17:32.940Z,54.47
2022-09-06T09:20:00.231Z,54.46
2022-09-06T09:22:28.085Z,54.15
2022-09-06T09:24:59.179Z,54.42
2022-09-06T09:27:28.816Z,54.59
2022-09-06T09:32:45.335Z,54.81
2022-09-06T09:35:27.819Z,54.69
2022-09-06T09:38:11.773Z,54.74
2022-09-06T09:40:48.914Z,54.88
2022-09-06T09:43:26.269Z,54.84
2022-09-06T09:46:15.762Z,54.82
2022-09-06T09:49:04.478Z,54.95
2022-09-06T09:51:35.180Z,54.98
2022-09-06T09:54:05.497Z,54.86
2022-09-06T09:56:51.718Z,55.05
2022-09-06T09:59:22.739Z,54.88
2022-09-06T10:01:54.003Z,54.68
2022-09-06T10:04:52.689Z,54.77
2022-09-06T10:07:22.876Z,54.66
2022-09-06T10:10:04.841Z,54.55
2022-09-06T10:12:33.027Z,54.73
2022-09-06T10:15:02.522Z,54.73
2022-09-06T10:17:47.532Z,54.78
2022-09-06T10:20:15.307Z,54.84
2022-09-06T10:23:00.175Z,54.99
2022-09-06T10:26:08.482Z,54.88
2022-09-06T10:28:45.494Z,54.88
2022-09-06T10:31:38.100Z,55.17
2022-09-06T10:34:42.500Z,55.14
2022-09-06T10:37:21.728Z,55.22
2022-09-06T10:39:55.151Z,55.03
2022-09-06T10:42:32.356Z,54.84
2022-09-06T10:45:16.825Z,54.73
2022-09-06T10:48:13.938Z,54.63
2022-09-06T10:50:53.109Z,54.76
2022-09-06T10:53:47.865Z,54.82
2022-09-06T10:56:27.652Z,54.86
2022-09-06T11:02:27.982Z,54.81
2022-09-06T11:11:17.291Z,55.14
2022-09-06T11:13:44.636Z,55.03
2022-09-06T11:16:28.783Z,55.17
2022-09-06T11:19:02.216Z,55.13
2022-09-06T11:21:38.074Z,55.14
2022-09-06T11:24:32.981Z,55.27
2022-09-06T11:27:24.171Z,55.10
2022-09-06T11:29:56.472Z,55.04
2022-09-06T11:32:59.007Z,55.12
2022-09-06T11:35:32.862Z,55.14
2022-09-06T11:38:00.077Z,55.29
2022-09-06T11:40:36.542Z,55.53
2022-09-06T11:43:03.866Z,56.47
2022-09-06T11:45:43.570Z,57.35
2022-09-06T11:48:34.809Z,59.61
2022-09-06T11:51:10.815Z,59.53
2022-09-06T11:53:58.249Z,60.55
2022-09-06T11:56:45.759Z,60.61
2022-09-06T11:59:19.138Z,61.03
2022-09-06T12:01:55.370Z,61.04
2022-09-06T12:04:23.757Z,61.62
2022-09-06T12:07:11.881Z,61.93
2022-09-06T12:09:46.221Z,61.99
2022-09-06T12:12:40.982Z,62.16
2022-09-06T12:15:51.944Z,62.50
2022-09-06T12:18:40.916Z,62.69
2022-09-06T12:21:09.769Z,62.84
2022-09-06T12:23:36.955Z,62.37
2022-09-06T12:26:11.858Z,62.40
2022-09-06T12:28:47.372Z,62.79
2022-09-06T12:31:31.524Z,62.59
2022-09-06T12:34:07.962Z,62.96
2022-09-06T12:36:36.659Z,63.57
2022-09-06T12:39:09.818Z,64.09
2022-09-06T12:41:43.449Z,64.46
2022-09-06T12:44:14.462Z,64.53
2022-09-06T12:46:48.910Z,64.24
2022-09-06T12:49:20.416Z,63.89
2022-09-06T12:51:47.985Z,64.03
2022-09-06T12:54:25.016Z,64.02
2022-09-06T12:56:53.531Z,64.36
2022-09-06T12:59:27.220Z,63.73
2022-09-06T13:02:12.398Z,63.39
2022-09-06T13:04:46.834Z,64.30
2022-09-06T13:07:17.692Z,63.79
2022-09-06T13:09:48.051Z,63.82
2022-09-06T13:12:29.643Z,63.80
2022-09-06T13:15:00.357Z,63.36
2022-09-06T13:17:30.065Z,63.45
2022-09-06T13:20:30.243Z,63.32
2022-09-06T13:23:09.766Z,63.63
2022-09-06T13:25:51.893Z,64.51
2022-09-06T13:28:29.796Z,64.18
2022-09-06T13:31:20.570Z,63.68
2022-09-06T13:33:58.319Z,63.36
2022-09-06T13:36:30.996Z,63.60
2022-09-06T13:39:00.092Z,63.88
2022-09-06T13:41:27.515Z,64.39
2022-09-06T13:44:03.352Z,64.26
2022-09-06T13:46:32.394Z,64.31
2022-09-06T13:48:59.781Z,63.92
2022-09-06T13:51:27.077Z,62.94
2022-09-06T13:54:08.612Z,63.33
2022-09-06T13:56:36.476Z,63.66
2022-09-06T13:59:04.858Z,63.12
2022-09-06T14:01:33.237Z,63.78
2022-09-06T14:04:00.893Z,63.30
2022-09-06T14:06:28.315Z,62.87
2022-09-06T14:09:06.775Z,62.80
2022-09-06T14:11:35.110Z,62.11
2022-09-06T14:14:02.490Z,62.47
2022-09-06T14:16:30.254Z,62.51
2022-09-06T14:18:58.010Z,62.35
2022-09-06T14:21:25.473Z,62.20
2022-09-06T14:23:53.048Z,61.99
2022-09-06T14:26:22.299Z,61.83
2022-09-06T14:28:50.091Z,61.96
2022-09-06T14:31:22.954Z,61.77
2022-09-06T14:33:50.401Z,61.43
2022-09-06T14:36:20.159Z,60.71
2022-09-06T14:38:48.473Z,60.53
2022-09-06T14:41:18.461Z,60.37
2022-09-06T14:43:53.467Z,60.35
2022-09-06T14:46:22.607Z,60.48
2022-09-06T14:49:00.558Z,60.01
2022-09-06T14:51:29.003Z,59.07
2022-09-06T14:53:59.422Z,57.88
2022-09-06T14:56:27.115Z,58.17
2022-09-06T14:58:57.515Z,57.77
2022-09-06T15:01:28.766Z,58.01
2022-09-06T15:03:58.839Z,58.06
2022-09-06T15:06:27.138Z,58.08
2022-09-06T15:08:59.147Z,57.22
2022-09-06T15:11:34.653Z,57.53
2022-09-06T15:14:04.608Z,55.58
2022-09-06T15:16:32.829Z,55.96
2022-09-06T15:19:00.252Z,54.37
2022-09-06T15:21:27.618Z,54.32
2022-09-06T15:23:55.187Z,54.67
2022-09-06T15:26:23.004Z,54.62
2022-09-06T15:28:50.308Z,54.26
2022-09-06T15:31:19.431Z,54.77
2022-09-06T15:33:50.624Z,55.40
2022-09-06T15:36:18.628Z,55.80
2022-09-06T15:38:48.199Z,55.34
2022-09-06T15:41:25.300Z,55.18
2022-09-06T15:44:01.472Z,55.11
2022-09-06T15:46:34.979Z,54.88
2022-09-06T15:49:06.663Z,54.88
2022-09-06T15:51:35.830Z,55.07
2022-09-06T15:54:03.222Z,54.89
2022-09-06T15:56:30.865Z,55.09
2022-09-06T15:58:58.145Z,55.26
2022-09-06T16:01:27.071Z,54.66
2022-09-06T16:04:03.686Z,55.19
2022-09-06T16:06:37.867Z,54.83
2022-09-06T16:09:14.293Z,54.50
2022-09-06T16:11:42.204Z,55.06
2022-09-06T16:14:12.466Z,55.24
2022-09-06T16:16:42.371Z,55.19
2022-09-06T16:19:12.163Z,54.70
2022-09-06T16:21:41.753Z,55.10
2022-09-06T16:24:12.327Z,55.08
2022-09-06T16:26:42.875Z,55.14
2022-09-06T16:29:11.957Z,55.03
2022-09-06T16:31:40.794Z,55.57
2022-09-06T16:34:09.745Z,55.29
2022-09-06T16:36:37.580Z,55.41
2022-09-06T16:39:05.807Z,55.39
2022-09-06T16:41:40.677Z,55.65
2022-09-06T16:44:14.543Z,55.58
2022-09-06T16:46:43.379Z,55.45
2022-09-06T16:49:10.839Z,55.74
2022-09-06T16:51:38.161Z,55.82
2022-09-06T16:54:05.543Z,55.93
2022-09-06T16:56:34.837Z,55.37
2022-09-06T16:59:05.556Z,55.91
2022-09-06T17:01:33.891Z,56.55
2022-09-06T17:04:02.270Z,56.73
2022-09-06T17:06:30.759Z,56.60
2022-09-06T17:09:00.748Z,56.62
2022-09-06T17:11:28.986Z,56.53
2022-09-06T17:13:57.414Z,56.52
2022-09-06T17:16:43.752Z,56.67
2022-09-06T17:19:11.463Z,57.05
2022-09-06T17:22:06.537Z,56.75
2022-09-06T17:24:34.111Z,56.55
2022-09-06T17:27:01.474Z,56.91
2022-09-06T17:29:29.188Z,57.53
2022-09-06T17:31:56.529Z,57.15
2022-09-06T17:34:23.975Z,57.56
2022-09-06T17:36:51.447Z,57.82
2022-09-06T17:39:23.680Z,57.51
2022-09-06T17:41:53.658Z,57.65
2022-09-06T17:44:25.183Z,58.27
2022-09-06T17:47:11.467Z,57.94
2022-09-06T17:49:40.338Z,58.31
2022-09-06T17:52:07.660Z,58.16
2022-09-06T17:54:35.159Z,58.10
2022-09-06T17:57:02.485Z,57.87
2022-09-06T17:59:35.110Z,57.96
2022-09-06T18:02:05.155Z,57.72
2022-09-06T18:04:32.647Z,58.02
2022-09-06T18:07:00.047Z,58.01
2022-09-06T18:09:27.391Z,58.27
2022-09-06T18:11:54.669Z,58.22
2022-09-06T18:14:22.003Z,58.40
2022-09-06T18:16:51.675Z,60.73
2022-09-06T18:19:19.073Z,60.87
2022-09-06T18:21:47.606Z,60.36
2022-09-06T18:24:15.449Z,60.61
2022-09-06T18:26:43.512Z,60.10
2022-09-06T18:29:14.640Z,60.90
2022-09-06T18:31:42.889Z,60.75
2022-09-06T18:34:10.605Z,60.46
2022-09-06T18:36:38.527Z,60.09
2022-09-06T18:39:06.509Z,60.05
2022-09-06T18:41:52.982Z,60.31
2022-09-06T18:44:21.694Z,61.19
2022-09-06T18:46:49.752Z,60.80
2022-09-06T18:49:17.478Z,61.24
2022-09-06T18:51:45.511Z,60.85
2022-09-06T18:54:13.220Z,61.06
2022-09-06T18:56:41.249Z,61.38
2022-09-06T18:59:08.587Z,61.17
2022-09-06T19:01:36.593Z,61.33
2022-09-06T19:04:05.601Z,61.10
2022-09-06T19:06:34.868Z,61.42
2022-09-06T19:09:05.326Z,61.42
2022-09-06T19:11:33.287Z,61.38
2022-09-06T19:14:01.142Z,61.31
2022-09-06T19:16:29.653Z,61.55
2022-09-06T19:19:02.958Z,61.39
2022-09-06T19:21:30.411Z,61.66
2022-09-06T19:23:59.858Z,61.83
2022-09-06T19:26:31.293Z,61.77
2022-09-06T19:29:01.176Z,62.04
2022-09-06T19:31:31.314Z,61.91
2022-09-06T19:33:59.412Z,61.92
2022-09-06T19:36:28.900Z,61.77
2022-09-06T19:39:04.397Z,61.70
2022-09-06T19:41:34.220Z,62.26
2022-09-06T19:44:03.535Z,62.32
2022-09-06T19:46:30.899Z,62.29
2022-09-06T19:48:58.390Z,62.31
2022-09-06T19:51:26.033Z,62.18
2022-09-06T19:53:58.134Z,62.31
2022-09-06T19:56:31.748Z,62.22
2022-09-06T19:59:01.741Z,62.31
2022-09-06T20:01:31.175Z,62.39
2022-09-06T20:04:00.034Z,62.46
2022-09-06T20:06:27.491Z,62.65
2022-09-06T20:08:56.742Z,62.81
2022-09-06T20:11:27.174Z,62.47
2022-09-06T20:13:54.963Z,62.41
2022-09-06T20:16:24.902Z,62.67
2022-09-06T20:18:54.929Z,62.49
2022-09-06T20:21:22.605Z,62.68
2022-09-06T20:23:52.132Z,62.60
2022-09-06T20:26:20.443Z,62.54
2022-09-06T20:28:47.823Z,62.60
2022-09-06T20:31:18.069Z,62.59
2022-09-06T20:33:49.428Z,62.37
2022-09-06T20:36:18.539Z,62.46
2022-09-06T20:38:47.656Z,62.34
2022-09-06T20:41:17.797Z,62.60
2022-09-06T20:43:46.561Z,62.71
2022-09-06T20:46:18.217Z,62.36
2022-09-06T20:48:46.693Z,62.49
2022-09-06T20:51:18.816Z,62.27
2022-09-06T20:53:56.051Z,62.77
2022-09-06T20:56:33.270Z,62.86
2022-09-06T20:59:02.750Z,62.63
2022-09-06T21:01:34.760Z,62.58
2022-09-06T21:04:04.390Z,62.38
2022-09-06T21:06:36.573Z,62.22
2022-09-06T21:09:09.659Z,62.06
2022-09-06T21:11:37.398Z,61.84
2022-09-06T21:14:05.852Z,61.88
2022-09-06T21:16:33.892Z,61.85
2022-09-06T21:19:04.288Z,61.81
2022-09-06T21:21:33.105Z,61.54
2022-09-06T21:24:05.397Z,61.66
2022-09-06T21:26:33.410Z,61.37
2022-09-06T21:29:00.727Z,61.11
2022-09-06T21:31:31.376Z,61.17
2022-09-06T21:34:03.361Z,60.90
2022-09-06T21:36:36.652Z,60.54
2022-09-06T21:39:06.898Z,60.75
2022-09-06T21:41:35.073Z,60.83
2022-09-06T21:44:04.200Z,61.28
2022-09-06T21:46:36.235Z,61.37
2022-09-06T21:49:07.396Z,61.46
2022-09-06T21:51:35.643Z,61.65
2022-09-06T21:54:04.510Z,61.64
2022-09-06T21:56:34.205Z,61.75
2022-09-06T21:59:02.423Z,62.04
2022-09-06T22:01:32.103Z,61.91
2022-09-06T22:04:00.515Z,61.88
2022-09-06T22:06:30.065Z,61.83
2022-09-06T22:08:59.146Z,61.87
2022-09-06T22:11:29.276Z,61.97
2022-09-06T22:14:01.761Z,61.75
2022-09-06T22:16:31.171Z,61.56
2022-09-06T22:18:58.635Z,61.40
2022-09-06T22:21:25.976Z,61.13
2022-09-06T22:24:02.046Z,60.92
2022-09-06T22:26:32.503Z,60.48
2022-09-06T22:29:02.738Z,60.23
2022-09-06T22:31:32.039Z,59.78
2022-09-06T22:34:00.332Z,59.70
2022-09-06T22:36:28.189Z,59.48
2022-09-06T22:38:57.506Z,59.24
2022-09-06T22:41:27.167Z,58.91
2022-09-06T22:43:55.131Z,58.65
2022-09-06T22:46:23.200Z,58.80
2022-09-06T22:48:50.513Z,58.63
2022-09-06T22:51:17.895Z,58.87
2022-09-06T22:53:45.184Z,59.09
2022-09-06T22:56:12.649Z,59.19
2022-09-06T22:58:39.973Z,59.13
2022-09-06T23:01:13.059Z,59.20
2022-09-06T23:03:42.183Z,58.97
2022-09-06T23:06:09.778Z,59.36
2022-09-06T23:08:39.024Z,59.38
2022-09-06T23:11:12.942Z,59.29
2022-09-06T23:13:44.063Z,59.24
2022-09-06T23:16:17.422Z,59.35
2022-09-06T23:18:45.644Z,59.16
2022-09-06T23:21:18.250Z,59.12
2022-09-06T23:23:46.699Z,59.10
2022-09-06T23:26:16.798Z,59.04
2022-09-06T23:28:44.952Z,59.20
2022-09-06T23:31:15.447Z,59.08
2022-09-06T23:33:42.954Z,58.94
2022-09-06T23:36:12.922Z,59.02
2022-09-06T23:38:41.452Z,59.13
2022-09-06T23:41:10.306Z,59.02
2022-09-06T23:43:38.827Z,59.09
2022-09-06T23:46:07.163Z,58.92
2022-09-06T23:48:34.888Z,58.98
2022-09-06T23:51:02.643Z,59.10
2022-09-06T23:53:30.138Z,59.10
2022-09-06T23:55:57.903Z,59.11
2022-09-06T23:58:25.564Z,58.99
